アリススプリングス の空港の天気 - METARとTAF

アリス・スプリングス空港 ( YBAS / ASP ) - オーストラリア ノーザンテリトリーアリススプリングス
飛行場実況気象(Metar)
観測時間05/31 03:00 ACST (05/30 17:30 UTC)
風向・風速西北西 3m/s
視程10km以上
天気現象
全天の4割程度の雲 雲底高度 2230m
気温14℃
湿度72%
気圧1018hPa
METARYBAS 301730Z AUTO 30006KT 280V340 9999 // SCT073 14/09 Q1018
過去の天気等 Google飛行場航空写真 Wunderground天気予報

過去48時間のMETAR

飛行場予報(TAF)
発表時間: 5/31 02:46 ACST (5/30 17:16 UTC)
予報対象時間: 31日3時 ACST ~ 1日3時 ACST
風向・風速西北西 4m/s
視程10km以上
なし
31日9時 ACST から
風向・風速南 5m/s
視程10km以上
なし
TAF YBAS 301716Z 3018/3118 30007KT CAVOK
FM310000 19010KT CAVOK